createdAt,value
2019-02-19T00:03:50.642Z,10.10
2019-02-19T00:06:37.584Z,10.20
2019-02-19T00:09:24.447Z,10.20
2019-02-19T00:12:10.726Z,10.20
2019-02-19T00:14:57.889Z,10.10
2019-02-19T00:17:44.739Z,10.00
2019-02-19T00:20:31.059Z,10.10
2019-02-19T00:23:18.144Z,10.10
2019-02-19T00:26:04.879Z,10.20
2019-02-19T00:28:51.878Z,10.20
2019-02-19T00:31:38.479Z,10.20
2019-02-19T00:34:25.455Z,10.20
2019-02-19T00:37:12.335Z,10.20
2019-02-19T00:39:59.170Z,10.20
2019-02-19T00:42:45.814Z,10.30
2019-02-19T00:45:32.452Z,10.30
2019-02-19T00:48:19.571Z,10.30
2019-02-19T00:51:05.863Z,10.30
2019-02-19T00:53:52.939Z,10.30
2019-02-19T00:56:39.742Z,10.40
2019-02-19T00:59:26.285Z,10.30
2019-02-19T01:02:12.531Z,10.40
2019-02-19T01:04:59.307Z,10.30
2019-02-19T01:07:45.743Z,10.30
2019-02-19T01:10:33.527Z,10.30
2019-02-19T01:13:20.491Z,10.30
2019-02-19T01:16:07.243Z,10.30
2019-02-19T01:18:54.091Z,10.30
2019-02-19T01:21:40.540Z,10.30
2019-02-19T01:24:25.506Z,10.20
2019-02-19T01:27:19.529Z,10.30
2019-02-19T01:30:06.528Z,10.30
2019-02-19T01:32:52.778Z,10.30
2019-02-19T01:35:39.175Z,10.40
2019-02-19T01:38:25.606Z,10.50
2019-02-19T01:41:12.335Z,10.50
2019-02-19T01:43:59.367Z,10.60
2019-02-19T01:46:46.115Z,10.50
2019-02-19T01:49:32.975Z,10.60
2019-02-19T01:52:19.802Z,10.60
2019-02-19T01:55:06.916Z,10.60
2019-02-19T01:57:53.978Z,10.50
2019-02-19T02:00:40.554Z,10.50
2019-02-19T02:03:27.663Z,10.50
2019-02-19T02:06:14.783Z,10.50
2019-02-19T02:09:01.331Z,10.40
2019-02-19T02:11:48.531Z,10.40
2019-02-19T02:14:35.639Z,10.30
2019-02-19T02:17:22.348Z,10.30
2019-02-19T02:20:09.258Z,10.20
2019-02-19T02:22:55.782Z,10.20
2019-02-19T02:25:42.075Z,10.20
2019-02-19T02:28:28.511Z,10.30
2019-02-19T02:31:15.149Z,10.30
2019-02-19T02:34:02.146Z,10.30
2019-02-19T02:36:48.549Z,10.40
2019-02-19T02:39:34.872Z,10.30
2019-02-19T02:42:21.992Z,10.40
2019-02-19T02:45:08.319Z,10.40
2019-02-19T02:47:55.388Z,10.40
2019-02-19T02:50:42.169Z,10.50
2019-02-19T02:53:29.200Z,10.30
2019-02-19T02:56:16.092Z,10.30
2019-02-19T02:59:02.432Z,10.40
2019-02-19T03:01:49.220Z,10.40
2019-02-19T03:04:36.160Z,10.40
2019-02-19T03:07:28.024Z,10.40
2019-02-19T03:10:15.111Z,10.40
2019-02-19T03:13:02.130Z,10.40
2019-02-19T03:15:49.033Z,10.50
2019-02-19T03:18:35.319Z,10.50
2019-02-19T03:21:21.811Z,10.60
2019-02-19T03:24:08.816Z,10.50
2019-02-19T03:26:55.180Z,10.50
2019-02-19T03:29:41.581Z,10.50
2019-02-19T03:32:28.512Z,10.60
2019-02-19T03:35:15.547Z,10.60
2019-02-19T03:38:02.645Z,10.50
2019-02-19T03:40:49.573Z,10.40
2019-02-19T03:43:36.370Z,10.50
2019-02-19T03:46:22.754Z,10.50
2019-02-19T03:49:09.751Z,10.60
2019-02-19T03:51:56.774Z,10.50
2019-02-19T03:54:43.757Z,10.50
2019-02-19T03:57:30.638Z,10.50
2019-02-19T04:00:06.531Z,10.50
2019-02-19T04:03:00.556Z,10.60
2019-02-19T04:05:47.615Z,10.60
2019-02-19T04:08:34.636Z,10.50
2019-02-19T04:11:22.404Z,10.60
2019-02-19T04:14:08.701Z,10.60
2019-02-19T04:16:55.056Z,10.60
2019-02-19T04:19:40.215Z,10.60
2019-02-19T04:22:34.220Z,10.70
2019-02-19T04:25:21.143Z,10.70
2019-02-19T04:28:08.343Z,10.70
2019-02-19T04:30:55.709Z,10.70
2019-02-19T04:33:42.557Z,10.70
2019-02-19T04:36:29.416Z,10.70
2019-02-19T04:39:16.256Z,10.70
2019-02-19T04:42:03.024Z,10.70
2019-02-19T04:44:49.745Z,10.80
2019-02-19T04:47:24.475Z,10.90
2019-02-19T04:50:19.759Z,10.80
2019-02-19T04:53:26.385Z,10.80
2019-02-19T04:56:12.967Z,10.90
2019-02-19T04:59:00.068Z,10.90
2019-02-19T05:01:46.425Z,10.90
2019-02-19T05:04:33.465Z,10.90
2019-02-19T05:07:20.276Z,10.90
2019-02-19T05:10:07.200Z,10.90
2019-02-19T05:12:53.420Z,10.90
2019-02-19T05:15:40.072Z,10.90
2019-02-19T05:18:26.768Z,10.90
2019-02-19T05:21:13.823Z,10.90
2019-02-19T05:24:00.866Z,10.90
2019-02-19T05:26:47.292Z,10.90
2019-02-19T05:29:34.454Z,10.90
2019-02-19T05:32:20.985Z,11.00
2019-02-19T05:35:08.172Z,11.00
2019-02-19T05:37:54.722Z,11.00
2019-02-19T05:40:41.896Z,11.10
2019-02-19T05:43:28.855Z,11.10
2019-02-19T05:46:15.944Z,11.10
2019-02-19T05:49:03.051Z,11.20
2019-02-19T05:51:49.612Z,11.20
2019-02-19T05:54:36.436Z,11.20
2019-02-19T05:57:22.996Z,11.30
2019-02-19T06:00:09.307Z,11.40
2019-02-19T06:02:56.345Z,11.30
2019-02-19T06:05:42.951Z,11.30
2019-02-19T06:08:30.040Z,11.40
2019-02-19T06:11:16.472Z,11.40
2019-02-19T06:14:02.856Z,11.40
2019-02-19T06:16:57.965Z,11.30
2019-02-19T06:19:37.494Z,11.30
2019-02-19T06:22:24.104Z,11.30
2019-02-19T06:25:10.899Z,11.40
2019-02-19T06:27:57.580Z,11.40
2019-02-19T06:30:43.936Z,11.30
2019-02-19T06:33:31.068Z,11.30
2019-02-19T06:36:17.801Z,11.20
2019-02-19T06:39:05.196Z,11.20
2019-02-19T06:41:52.010Z,11.30
2019-02-19T06:44:38.316Z,11.30
2019-02-19T06:47:24.774Z,11.30
2019-02-19T06:50:11.177Z,11.20
2019-02-19T06:52:57.448Z,11.30
2019-02-19T06:55:45.018Z,11.30
2019-02-19T06:58:31.499Z,11.20
2019-02-19T07:01:21.383Z,11.30
2019-02-19T07:04:15.370Z,11.40
2019-02-19T07:07:02.368Z,11.30
2019-02-19T07:09:49.405Z,11.30
2019-02-19T07:12:36.079Z,11.40
2019-02-19T07:15:22.757Z,11.40
2019-02-19T07:18:09.680Z,11.40
2019-02-19T07:20:56.179Z,11.30
2019-02-19T07:23:42.691Z,11.40
2019-02-19T07:26:29.372Z,11.50
2019-02-19T07:29:16.572Z,11.60
2019-02-19T07:32:03.006Z,11.50
2019-02-19T07:34:50.028Z,11.60
2019-02-19T07:37:36.844Z,11.60
2019-02-19T07:40:23.765Z,11.60
2019-02-19T07:43:10.198Z,11.60
2019-02-19T07:45:57.007Z,11.50
2019-02-19T07:48:43.344Z,11.50
2019-02-19T07:51:30.493Z,11.40
2019-02-19T07:54:16.668Z,11.50
2019-02-19T07:57:03.315Z,11.50
2019-02-19T07:59:50.315Z,11.50
2019-02-19T08:02:36.703Z,11.50
2019-02-19T08:05:23.239Z,11.50
2019-02-19T08:08:09.717Z,11.50
2019-02-19T08:10:56.663Z,11.60
2019-02-19T08:13:43.820Z,11.60
2019-02-19T08:16:30.622Z,11.60
2019-02-19T08:19:17.031Z,11.60
2019-02-19T08:22:03.440Z,11.60
2019-02-19T08:24:50.591Z,11.60
2019-02-19T08:27:36.834Z,11.60
2019-02-19T08:30:23.699Z,11.60
2019-02-19T08:33:10.630Z,11.60
2019-02-19T08:35:57.187Z,11.60
2019-02-19T08:38:43.415Z,11.70
2019-02-19T08:41:30.505Z,11.70
2019-02-19T08:44:16.831Z,11.60
2019-02-19T08:47:03.948Z,11.60
2019-02-19T08:49:50.580Z,11.60
2019-02-19T08:52:37.455Z,11.60
2019-02-19T08:55:24.241Z,11.60
2019-02-19T08:58:11.435Z,11.70
2019-02-19T09:00:58.122Z,11.70
2019-02-19T09:03:45.192Z,11.70
2019-02-19T09:06:32.180Z,11.80
2019-02-19T09:09:19.191Z,11.80
2019-02-19T09:12:05.920Z,11.80
2019-02-19T09:14:52.256Z,11.70
2019-02-19T09:17:39.261Z,11.60
2019-02-19T09:20:27.210Z,11.50
2019-02-19T09:23:14.163Z,11.40
2019-02-19T09:26:01.240Z,11.30
2019-02-19T09:28:48.775Z,11.30
2019-02-19T09:31:35.883Z,11.40
2019-02-19T09:34:22.941Z,11.30
2019-02-19T09:37:09.688Z,11.40
2019-02-19T09:39:56.631Z,11.30
2019-02-19T09:42:43.304Z,11.30
2019-02-19T09:45:29.819Z,11.40
2019-02-19T09:48:16.095Z,11.40
2019-02-19T09:50:50.839Z,11.40
2019-02-19T09:53:44.787Z,11.30
2019-02-19T09:56:31.672Z,11.30
2019-02-19T09:59:06.502Z,11.40
2019-02-19T10:02:00.515Z,11.30
2019-02-19T10:04:47.227Z,11.30
2019-02-19T10:07:34.144Z,11.40
2019-02-19T10:10:20.843Z,11.30
2019-02-19T10:13:08.699Z,11.40
2019-02-19T10:15:55.160Z,11.50
2019-02-19T10:18:42.088Z,11.50
2019-02-19T10:21:28.628Z,11.60
2019-02-19T10:24:14.957Z,11.60
2019-02-19T10:27:01.673Z,11.60
2019-02-19T10:29:48.759Z,11.50
2019-02-19T10:32:35.234Z,11.60
2019-02-19T10:35:11.131Z,11.70
2019-02-19T10:38:05.066Z,11.60
2019-02-19T10:40:51.441Z,11.70
2019-02-19T10:43:38.367Z,11.70
2019-02-19T10:46:24.831Z,11.60
2019-02-19T10:49:11.193Z,11.70
2019-02-19T10:51:57.513Z,11.80
2019-02-19T10:54:44.435Z,11.90
2019-02-19T10:57:31.024Z,12.00
2019-02-19T11:03:15.081Z,11.90
2019-02-19T11:06:10.728Z,11.90
2019-02-19T11:08:57.633Z,12.00
2019-02-19T11:11:44.764Z,12.00
2019-02-19T11:14:32.011Z,11.90
2019-02-19T11:17:19.898Z,11.70
2019-02-19T11:20:07.750Z,11.80
2019-02-19T11:22:53.971Z,11.80
2019-02-19T11:25:40.691Z,11.80
2019-02-19T11:28:29.492Z,11.70
2019-02-19T11:31:16.537Z,11.60
2019-02-19T11:34:02.936Z,11.70
2019-02-19T11:36:49.898Z,11.70
2019-02-19T11:39:36.534Z,11.80
2019-02-19T11:42:23.170Z,11.80
2019-02-19T11:45:09.491Z,12.00
2019-02-19T11:47:56.615Z,12.00
2019-02-19T11:50:43.336Z,12.00
2019-02-19T12:00:06.852Z,11.50
2019-02-19T12:02:53.507Z,11.50
2019-02-19T12:05:40.416Z,11.40
2019-02-19T12:08:26.748Z,11.30
2019-02-19T12:11:13.410Z,11.00
2019-02-19T12:13:59.780Z,10.80
2019-02-19T12:16:46.644Z,10.80
2019-02-19T12:19:33.331Z,10.80
2019-02-19T12:22:20.359Z,10.70
2019-02-19T12:25:07.448Z,10.50
2019-02-19T12:27:54.624Z,10.30
2019-02-19T12:30:42.690Z,10.30
2019-02-19T12:33:29.847Z,10.40
2019-02-19T12:36:16.444Z,10.20
2019-02-19T12:39:05.497Z,10.20
2019-02-19T12:41:52.419Z,10.20
2019-02-19T12:44:39.356Z,10.40
2019-02-19T12:47:26.044Z,10.60
2019-02-19T12:50:13.109Z,10.40
2019-02-19T12:52:59.887Z,10.30
2019-02-19T12:55:46.605Z,10.40
2019-02-19T12:58:33.740Z,10.50
2019-02-19T13:01:20.383Z,10.60
2019-02-19T13:04:07.553Z,10.80
2019-02-19T13:06:54.355Z,10.90
2019-02-19T13:09:41.440Z,10.90
2019-02-19T13:12:27.771Z,10.90
2019-02-19T13:15:15.763Z,10.70
2019-02-19T13:18:02.737Z,10.80
2019-02-19T13:20:49.887Z,10.90
2019-02-19T13:23:38.224Z,11.00
2019-02-19T13:26:24.884Z,11.20
2019-02-19T13:29:11.844Z,11.30
2019-02-19T13:31:58.463Z,11.30
2019-02-19T13:34:45.223Z,11.30
2019-02-19T13:37:31.956Z,11.40
2019-02-19T13:40:18.448Z,11.40
2019-02-19T13:43:05.511Z,11.50
2019-02-19T13:45:51.991Z,11.40
2019-02-19T13:48:38.939Z,11.40
2019-02-19T13:51:25.998Z,11.30
2019-02-19T13:54:17.064Z,11.30
2019-02-19T13:57:03.493Z,11.40
2019-02-19T13:59:50.526Z,11.30
2019-02-19T14:02:37.708Z,11.30
2019-02-19T14:05:24.264Z,11.30
2019-02-19T14:08:14.695Z,11.30
2019-02-19T14:11:00.094Z,11.20
2019-02-19T14:14:08.999Z,11.30
2019-02-19T14:17:07.384Z,11.20
2019-02-19T14:20:13.028Z,11.30
2019-02-19T14:23:14.517Z,11.30
2019-02-19T14:26:20.273Z,11.20
2019-02-19T14:29:26.159Z,11.20
2019-02-19T14:32:25.845Z,11.10
2019-02-19T14:35:30.183Z,11.20
2019-02-19T14:38:35.596Z,11.30
2019-02-19T14:41:41.230Z,11.40
2019-02-19T14:44:47.098Z,11.40
2019-02-19T14:47:41.867Z,11.30
2019-02-19T14:50:54.944Z,11.30
2019-02-19T14:54:03.142Z,11.20
2019-02-19T14:56:56.665Z,11.20
2019-02-19T15:00:01.972Z,11.10
2019-02-19T15:03:11.539Z,11.40
2019-02-19T15:09:21.616Z,11.20
2019-02-19T15:12:27.811Z,11.20
2019-02-19T15:15:33.807Z,11.30
2019-02-19T15:18:45.471Z,11.30
2019-02-19T15:21:51.544Z,11.30
2019-02-19T15:24:45.544Z,11.30
2019-02-19T15:27:40.581Z,11.40
2019-02-19T15:30:45.940Z,11.20
2019-02-19T15:33:40.843Z,11.20
2019-02-19T15:36:46.870Z,11.10
2019-02-19T15:39:52.980Z,11.10
2019-02-19T15:42:50.367Z,11.10
2019-02-19T15:46:02.340Z,11.10
2019-02-19T15:49:04.207Z,10.80
2019-02-19T15:52:12.218Z,10.70
2019-02-19T15:55:09.739Z,10.70
2019-02-19T15:58:10.839Z,11.00
2019-02-19T16:01:19.049Z,11.10
2019-02-19T16:04:17.135Z,11.10
2019-02-19T16:07:11.488Z,11.20
2019-02-19T16:10:11.922Z,11.30
2019-02-19T16:13:09.040Z,11.30
2019-02-19T16:16:15.356Z,11.40
2019-02-19T16:19:15.120Z,11.40
2019-02-19T16:22:14.552Z,11.40
2019-02-19T16:25:20.601Z,11.50
2019-02-19T16:28:26.431Z,11.50
2019-02-19T16:34:24.739Z,11.50
2019-02-19T16:37:24.149Z,11.60
2019-02-19T16:40:29.751Z,11.60
2019-02-19T16:43:35.736Z,11.60
2019-02-19T16:46:41.308Z,11.60
2019-02-19T16:52:50.222Z,11.50
2019-02-19T16:55:31.250Z,11.50
2019-02-19T16:58:16.578Z,11.50
2019-02-19T17:00:59.380Z,11.60
2019-02-19T17:03:50.283Z,11.50
2019-02-19T17:06:44.668Z,12.00
2019-02-19T17:09:24.755Z,11.90
2019-02-19T17:12:15.024Z,11.80
2019-02-19T17:15:00.613Z,11.70
2019-02-19T17:17:48.642Z,11.60
2019-02-19T17:20:45.600Z,11.60
2019-02-19T17:23:40.531Z,11.50
2019-02-19T17:26:43.575Z,11.40
2019-02-19T17:29:40.429Z,11.40
2019-02-19T17:32:33.152Z,11.30
2019-02-19T17:35:28.581Z,11.30
2019-02-19T17:38:25.229Z,11.30
2019-02-19T17:41:05.451Z,11.30
2019-02-19T17:43:48.199Z,11.30
2019-02-19T17:47:00.148Z,11.30
2019-02-19T17:49:55.318Z,11.20
2019-02-19T17:52:42.001Z,11.20
2019-02-19T17:55:34.591Z,11.10
2019-02-19T17:58:15.515Z,11.20
2019-02-19T18:01:15.675Z,11.10
2019-02-19T18:04:10.976Z,11.10
2019-02-19T18:06:52.975Z,11.20
2019-02-19T18:09:37.403Z,11.20
2019-02-19T18:12:39.427Z,11.20
2019-02-19T18:15:31.041Z,11.30
2019-02-19T18:18:24.801Z,11.20
2019-02-19T18:20:59.533Z,11.30
2019-02-19T18:23:34.387Z,11.20
2019-02-19T18:26:09.119Z,11.20
2019-02-19T18:28:43.952Z,11.10
2019-02-19T18:31:18.692Z,11.10
2019-02-19T18:33:53.495Z,11.20
2019-02-19T18:36:28.257Z,11.20
2019-02-19T18:39:04.859Z,11.20
2019-02-19T18:41:41.429Z,11.20
2019-02-19T18:44:27.780Z,11.20
2019-02-19T18:47:02.603Z,11.10
2019-02-19T18:49:37.352Z,11.10
2019-02-19T18:52:12.251Z,11.20
2019-02-19T18:54:47.091Z,11.20
2019-02-19T18:57:21.910Z,11.20
2019-02-19T18:59:56.686Z,11.20
2019-02-19T19:02:31.430Z,11.20
2019-02-19T19:05:07.152Z,11.20
2019-02-19T19:07:42.351Z,11.10
2019-02-19T19:10:17.109Z,11.10
2019-02-19T19:12:51.931Z,11.10
2019-02-19T19:15:26.741Z,11.10
2019-02-19T19:18:01.801Z,11.10
2019-02-19T19:20:36.603Z,11.10
2019-02-19T19:23:11.335Z,11.10
2019-02-19T19:25:46.103Z,11.10
2019-02-19T19:28:21.129Z,11.00
2019-02-19T19:30:55.966Z,11.00
2019-02-19T19:33:30.774Z,11.00
2019-02-19T19:36:05.504Z,11.00
2019-02-19T19:38:40.279Z,10.60
2019-02-19T19:41:15.088Z,10.50
2019-02-19T19:43:49.852Z,10.50
2019-02-19T19:46:24.726Z,10.60
2019-02-19T19:48:59.474Z,10.50
2019-02-19T19:51:34.345Z,10.60
2019-02-19T19:54:09.087Z,10.60
2019-02-19T19:56:43.811Z,10.60
2019-02-19T19:59:18.671Z,10.60
2019-02-19T20:01:53.399Z,10.60
2019-02-19T20:04:28.221Z,10.60
2019-02-19T20:07:03.019Z,10.50
2019-02-19T20:09:37.775Z,10.50
2019-02-19T20:12:12.643Z,10.50
2019-02-19T20:14:47.439Z,10.50
2019-02-19T20:17:23.256Z,10.50
2019-02-19T20:19:58.072Z,10.50
2019-02-19T20:22:32.815Z,10.40
2019-02-19T20:25:09.591Z,10.30
2019-02-19T20:27:45.447Z,10.20
2019-02-19T20:30:20.322Z,10.30
2019-02-19T20:32:55.118Z,10.30
2019-02-19T20:35:29.978Z,10.20
2019-02-19T20:38:04.730Z,10.20
2019-02-19T20:40:39.486Z,10.20
2019-02-19T20:43:14.339Z,10.20
2019-02-19T20:45:49.216Z,10.10
2019-02-19T20:48:23.992Z,10.10
2019-02-19T20:50:58.806Z,10.30
2019-02-19T20:53:33.639Z,10.20
2019-02-19T20:56:08.538Z,10.30
2019-02-19T20:58:43.327Z,10.40
2019-02-19T21:01:18.071Z,10.30
2019-02-19T21:03:52.802Z,10.20
2019-02-19T21:06:27.553Z,10.10
2019-02-19T21:09:02.347Z,10.10
2019-02-19T21:11:38.706Z,10.00
2019-02-19T21:14:13.430Z,9.90
2019-02-19T21:16:48.267Z,9.90
2019-02-19T21:19:24.596Z,9.90
2019-02-19T21:21:59.424Z,9.70
2019-02-19T21:24:34.223Z,9.70
2019-02-19T21:27:08.981Z,9.70
2019-02-19T21:29:43.841Z,9.60
2019-02-19T21:32:18.640Z,9.60
2019-02-19T21:34:53.401Z,9.60
2019-02-19T21:37:28.147Z,9.60
2019-02-19T21:40:02.947Z,9.60
2019-02-19T21:42:39.319Z,9.50
2019-02-19T21:45:14.512Z,9.60
2019-02-19T21:47:49.399Z,9.50
2019-02-19T21:50:24.205Z,9.50
2019-02-19T21:52:58.945Z,9.50
2019-02-19T21:55:33.669Z,9.40
2019-02-19T21:58:08.402Z,9.40
2019-02-19T22:00:43.211Z,9.40
2019-02-19T22:03:19.587Z,9.30
2019-02-19T22:06:06.163Z,9.30
2019-02-19T22:08:41.921Z,9.20
2019-02-19T22:11:16.805Z,9.10
2019-02-19T22:13:52.502Z,9.00
2019-02-19T22:16:27.246Z,9.00
2019-02-19T22:19:01.970Z,9.00
2019-02-19T22:21:44.647Z,9.00
2019-02-19T22:24:34.953Z,8.90
2019-02-19T22:27:09.847Z,8.90
2019-02-19T22:29:44.588Z,8.90
2019-02-19T22:32:20.705Z,8.90
2019-02-19T22:34:55.423Z,9.00
2019-02-19T22:37:30.639Z,9.00
2019-02-19T22:40:06.314Z,9.00
2019-02-19T22:42:42.112Z,9.00
2019-02-19T22:45:16.983Z,8.90
2019-02-19T22:47:53.630Z,9.00
2019-02-19T22:50:28.278Z,8.90
2019-02-19T22:53:05.783Z,8.90
2019-02-19T22:56:05.709Z,8.80
2019-02-19T22:58:40.511Z,8.80
2019-02-19T23:01:24.116Z,8.70
2019-02-19T23:04:00.144Z,8.70
2019-02-19T23:06:34.943Z,8.70
2019-02-19T23:09:11.323Z,8.70
2019-02-19T23:11:46.052Z,8.70
2019-02-19T23:14:20.779Z,8.70
2019-02-19T23:16:55.582Z,8.60
2019-02-19T23:19:30.447Z,8.40
2019-02-19T23:22:05.255Z,8.50
2019-02-19T23:24:40.014Z,8.40
2019-02-19T23:27:14.817Z,8.50
2019-02-19T23:29:49.679Z,8.50
2019-02-19T23:32:24.400Z,8.40
2019-02-19T23:35:24.395Z,8.40
2019-02-19T23:37:59.217Z,8.40
2019-02-19T23:40:34.241Z,8.40
2019-02-19T23:43:09.055Z,8.40
2019-02-19T23:45:43.769Z,8.50
2019-02-19T23:48:18.508Z,8.10
2019-02-19T23:50:53.249Z,7.90
2019-02-19T23:53:28.064Z,7.90
2019-02-19T23:56:02.866Z,7.80
2019-02-19T23:58:37.616Z,7.90
